This is the latest recevied weather packets stored in our database for station/object IK1PCD-11. If no packets are shown the sender has not sent any weather packets the latest 10 day(s).
| Time | Temp. | Humidity | Pressure | Rain* | Wind** | Luminosity | Snow |
|---|---|---|---|---|---|---|---|
| 1777877884 | 11.11° C | 59% | 1017.3 hPa | - | - | - | - |
| 1777876984 | 10.56° C | 57% | 1017.3 hPa | - | - | - | - |
| 1777876084 | 10.56° C | 58% | 1017.1 hPa | - | - | - | - |
| 1777875187 | 10° C | 62% | 1017.2 hPa | - | - | - | - |
| 1777874287 | 9.44° C | 66% | 1017.2 hPa | - | - | - | - |
| 1777873387 | 8.33° C | 74% | 1017.3 hPa | - | - | - | - |
| 1777872487 | 7.78° C | 75% | 1017.3 hPa | - | - | - | - |
| 1777871587 | 6.67° C | 77% | 1017.1 hPa | - | - | - | - |
| 1777870686 | 6.11° C | 81% | 1017.1 hPa | - | - | - | - |
| 1777867086 | 5.56° C | 79% | 1016.9 hPa | - | - | - | - |
| 1777866186 | 5° C | 79% | 1016.8 hPa | - | - | - | - |
| 1777865286 | 5° C | 79% | 1016.8 hPa | - | - | - | - |
| 1777864386 | 5° C | 78% | 1016.9 hPa | - | - | - | - |
| 1777863486 | 5° C | 77% | 1016.8 hPa | - | - | - | - |
| 1777862586 | 5° C | 79% | 1017.1 hPa | - | - | - | - |
| 1777861685 | 5° C | 76% | 1017.1 hPa | - | - | - | - |
| 1777860785 | 5° C | 74% | 1016.9 hPa | - | - | - | - |
| 1777859885 | 5° C | 74% | 1017 hPa | - | - | - | - |
| 1777858985 | 5° C | 73% | 1017 hPa | - | - | - | - |
| 1777858084 | 5° C | 73% | 1017 hPa | - | - | - | - |
| 1777857184 | 5° C | 74% | 1017.1 hPa | - | - | - | - |
| 1777856284 | 5° C | 73% | 1017.1 hPa | - | - | - | - |
| 1777855384 | 5.56° C | 70% | 1017.2 hPa | - | - | - | - |
| 1777854483 | 6.11° C | 71% | 1017.2 hPa | - | - | - | - |
| 1777852693 | 6.67° C | 69% | 1017.2 hPa | - | - | - | - |
* Rain since midnight (hover to see other rain measurements)
** Current wind speed in m/s (hover to see current wind gust speed)